Time;durP1;ratioP1;P1;durP2;ratioP2;P2;SDS_P1;SDS_P2;PMS_P1;PMS_P2;Temp;Humidity;BMP_temperature;BMP_pressure;BME280_temperature;BME280_humidity;BME280_pressure;Samples;Min_cycle;Max_cycle;Signal;HPM_P1;HPM_P2
2022/10/27 00:01:20;;;;;;;;;4.00;4.00;;;;;-147.17;100.00;-15917.19;5041429;28;54200;-44
2022/10/27 00:03:49;;;;;;;;;3.00;3.00;;;;;-147.17;100.00;-15917.19;5039687;28;51381;-43
2022/10/27 00:06:14;;;;;;;;;4.67;4.00;;;;;-147.17;100.00;-15917.19;5041621;28;51326;-44
2022/10/27 00:08:40;;;;;;;;;4.00;4.00;;;;;-147.17;100.00;-15917.19;5032651;28;51462;-44
2022/10/27 00:11:06;;;;;;;;;3.67;3.67;;;;;-147.17;100.00;-15917.19;5040905;28;52211;-43
2022/10/27 00:13:33;;;;;;;;;3.67;3.67;;;;;-147.17;100.00;-15917.19;5041637;27;52045;-44
2022/10/27 00:16:05;;;;;;;;;6.00;4.00;;;;;-147.17;100.00;-15917.19;5044144;27;52551;-43
2022/10/27 00:18:31;;;;;;;;;4.00;4.00;;;;;-147.17;100.00;-15917.19;5045298;27;51005;-43
2022/10/27 00:21:07;;;;;;;;;4.00;4.00;;;;;-147.17;100.00;-15917.19;5049925;28;51269;-44
2022/10/27 00:23:33;;;;;;;;;5.00;4.33;;;;;-147.17;100.00;-15917.19;5049994;28;51206;-44
2022/10/27 00:25:59;;;;;;;;;3.67;3.00;;;;;-147.17;100.00;-15917.19;5052339;28;51018;-44
2022/10/27 00:28:27;;;;;;;;;4.00;4.00;;;;;-147.17;100.00;-15917.19;5047324;28;50935;-43
2022/10/27 00:31:03;;;;;;;;;4.00;3.00;;;;;-147.17;100.00;-15917.19;5049891;28;53205;-43
2022/10/27 00:33:28;;;;;;;;;3.67;3.67;;;;;-147.17;100.00;-15917.19;5048684;28;51202;-44
2022/10/27 00:35:54;;;;;;;;;3.00;3.00;;;;;-147.17;100.00;-15917.19;5052154;28;51156;-43
2022/10/27 00:38:21;;;;;;;;;4.00;4.00;;;;;-147.17;100.00;-15917.19;5052288;28;51169;-43
2022/10/27 00:40:46;;;;;;;;;4.00;4.00;;;;;-147.17;100.00;-15917.19;5051228;28;51927;-43
2022/10/27 00:43:31;;;;;;;;;5.33;4.00;;;;;-147.17;100.00;-15917.19;5028996;28;51129;-44
2022/10/27 00:46:09;;;;;;;;;4.00;4.00;;;;;-147.17;100.00;-15917.19;5047533;28;51305;-44
2022/10/27 00:48:34;;;;;;;;;4.33;4.33;;;;;-147.17;100.00;-15917.19;5053035;28;51119;-44
2022/10/27 00:51:02;;;;;;;;;4.00;4.00;;;;;-147.17;100.00;-15917.19;5049455;28;52025;-44
2022/10/27 00:53:29;;;;;;;;;4.00;3.67;;;;;-147.17;100.00;-15917.19;5046499;28;51285;-44
2022/10/27 00:55:54;;;;;;;;;3.33;3.00;;;;;-147.17;100.00;-15917.19;5048624;28;53283;-45
2022/10/27 00:58:20;;;;;;;;;2.67;2.33;;;;;-147.17;100.00;-15917.19;5049611;28;51406;-43
2022/10/27 01:00:46;;;;;;;;;5.00;4.00;;;;;-147.17;100.00;-15917.19;5044374;28;51996;-43
2022/10/27 01:03:15;;;;;;;;;5.67;5.00;;;;;-147.17;100.00;-15917.19;5049259;28;52655;-44
2022/10/27 01:05:42;;;;;;;;;2.00;2.00;;;;;-147.17;100.00;-15917.19;5049389;28;51357;-43
2022/10/27 01:08:07;;;;;;;;;6.00;5.67;;;;;-147.17;100.00;-15917.19;5050890;28;51147;-44
2022/10/27 01:10:33;;;;;;;;;4.00;4.00;;;;;-147.17;100.00;-15917.19;5050606;28;51165;-43
2022/10/27 01:12:59;;;;;;;;;5.00;4.00;;;;;-147.17;100.00;-15917.19;5050540;28;51167;-43
2022/10/27 01:15:46;;;;;;;;;4.00;3.33;;;;;-147.17;100.00;-15917.19;5052203;28;51148;-43
2022/10/27 01:18:23;;;;;;;;;5.67;4.00;;;;;-147.17;100.00;-15917.19;5049375;28;51156;-43
2022/10/27 01:21:23;;;;;;;;;3.33;3.33;;;;;-147.17;100.00;-15917.19;5042926;28;52128;-43
2022/10/27 01:24:22;;;;;;;;;4.00;4.00;;;;;-147.17;100.00;-15917.19;5049332;28;51140;-45
2022/10/27 01:27:02;;;;;;;;;4.67;4.33;;;;;-147.17;100.00;-15917.19;5050716;28;51391;-45
2022/10/27 01:29:33;;;;;;;;;4.00;3.67;;;;;-147.17;100.00;-15917.19;5052167;28;52541;-44
2022/10/27 01:32:26;;;;;;;;;0.00;0.00;;;;;-147.17;100.00;-15917.19;5046779;28;52109;-44
2022/10/27 01:35:23;;;;;;;;;4.33;4.33;;;;;-147.17;100.00;-15917.19;5051924;28;51178;-44
2022/10/27 01:38:01;;;;;;;;;5.00;3.00;;;;;-147.17;100.00;-15917.19;5047161;28;51152;-44
2022/10/27 01:40:29;;;;;;;;;7.67;6.00;;;;;-147.17;100.00;-15917.19;5045342;28;51464;-44
2022/10/27 01:43:06;;;;;;;;;2.00;1.00;;;;;-147.17;100.00;-15917.19;5050059;28;51914;-44
2022/10/27 01:45:36;;;;;;;;;4.67;3.67;;;;;-147.17;100.00;-15917.19;5053910;28;51131;-44
2022/10/27 01:48:04;;;;;;;;;4.00;4.00;;;;;-147.17;100.00;-15917.19;5048586;28;53226;-44
2022/10/27 01:50:33;;;;;;;;;4.00;4.00;;;;;-147.17;100.00;-15917.19;5033799;28;51088;-44
2022/10/27 01:52:59;;;;;;;;;3.00;3.00;;;;;-147.17;100.00;-15917.19;5050296;28;52693;-44
2022/10/27 01:55:25;;;;;;;;;4.33;4.33;;;;;-147.17;100.00;-15917.19;5035223;28;51444;-44
2022/10/27 01:58:23;;;;;;;;;4.33;4.33;;;;;-147.17;100.00;-15917.19;5051426;28;51163;-44
2022/10/27 02:01:21;;;;;;;;;4.33;3.67;;;;;-147.17;100.00;-15917.19;5048919;28;50907;-43
2022/10/27 02:04:00;;;;;;;;;4.67;4.67;;;;;-147.17;100.00;-15917.19;5047429;28;51320;-43
2022/10/27 02:07:10;;;;;;;;;4.67;4.33;;;;;-147.17;100.00;-15917.19;5056517;28;50941;-44
2022/10/27 02:10:04;;;;;;;;;5.00;5.00;;;;;-147.17;100.00;-15917.19;4980428;28;51136;-45
2022/10/27 02:12:34;;;;;;;;;3.67;3.67;;;;;-147.17;100.00;-15917.19;5045222;28;51222;-45
2022/10/27 02:15:03;;;;;;;;;5.00;5.00;;;;;-147.17;100.00;-15917.19;5049291;28;52382;-44
2022/10/27 02:17:35;;;;;;;;;4.33;3.00;;;;;-147.17;100.00;-15917.19;5049053;28;51099;-44
2022/10/27 02:20:05;;;;;;;;;4.00;4.00;;;;;-147.17;100.00;-15917.19;5045776;28;51281;-43
2022/10/27 02:22:31;;;;;;;;;4.33;4.00;;;;;-147.17;100.00;-15917.19;5032491;28;51313;-44
2022/10/27 02:24:57;;;;;;;;;3.67;3.67;;;;;-147.17;100.00;-15917.19;5053687;28;51233;-43
2022/10/27 02:27:52;;;;;;;;;5.00;3.67;;;;;-147.17;100.00;-15917.19;5052690;28;51599;-44
2022/10/27 02:30:17;;;;;;;;;3.00;2.33;;;;;-147.17;100.00;-15917.19;5053675;28;51094;-44
2022/10/27 02:32:43;;;;;;;;;5.33;4.33;;;;;-147.17;100.00;-15917.19;5053565;28;51001;-44
2022/10/27 02:35:11;;;;;;;;;6.00;5.00;;;;;-147.17;100.00;-15917.19;5054016;28;52103;-44
2022/10/27 02:37:39;;;;;;;;;4.00;3.00;;;;;-147.17;100.00;-15917.19;5054486;28;51084;-44
2022/10/27 02:40:06;;;;;;;;;4.00;4.00;;;;;-147.17;100.00;-15917.19;5053499;28;50985;-44
2022/10/27 02:42:31;;;;;;;;;5.00;5.00;;;;;-147.17;100.00;-15917.19;5037102;28;52246;-44
2022/10/27 02:44:56;;;;;;;;;3.67;3.67;;;;;-147.17;100.00;-15917.19;5051372;28;51898;-44
2022/10/27 02:47:22;;;;;;;;;4.00;4.00;;;;;-147.17;100.00;-15917.19;5053474;28;51002;-44
2022/10/27 02:49:47;;;;;;;;;2.33;2.00;;;;;-147.17;100.00;-15917.19;5053107;28;51151;-44
2022/10/27 02:52:13;;;;;;;;;3.00;3.00;;;;;-147.17;100.00;-15917.19;5059389;28;51222;-44
2022/10/27 02:54:39;;;;;;;;;6.33;5.00;;;;;-147.17;100.00;-15917.19;5052860;28;52654;-44
2022/10/27 02:57:04;;;;;;;;;3.33;3.33;;;;;-147.17;100.00;-15917.19;5035024;28;51240;-44
2022/10/27 02:59:29;;;;;;;;;5.00;5.00;;;;;-147.17;100.00;-15917.19;5053306;28;51072;-43
2022/10/27 03:01:55;;;;;;;;;5.00;3.67;;;;;-147.17;100.00;-15917.19;5052470;28;50898;-44
2022/10/27 03:04:20;;;;;;;;;2.33;2.33;;;;;-147.17;100.00;-15917.19;5051368;28;52938;-44
2022/10/27 03:06:45;;;;;;;;;3.67;3.67;;;;;-147.17;100.00;-15917.19;5048030;28;51063;-43
2022/10/27 03:09:11;;;;;;;;;4.00;4.00;;;;;-147.17;100.00;-15917.19;5049216;28;51330;-43
2022/10/27 03:11:36;;;;;;;;;6.00;6.00;;;;;-147.17;100.00;-15917.19;5054502;28;50984;-43
2022/10/27 03:14:01;;;;;;;;;5.67;5.00;;;;;-147.17;100.00;-15917.19;5050365;28;66051;-45
2022/10/27 03:16:27;;;;;;;;;6.00;5.00;;;;;-147.17;100.00;-15917.19;5053801;28;59792;-43
2022/10/27 03:18:52;;;;;;;;;4.00;4.00;;;;;-147.17;100.00;-15917.19;5044622;28;51222;-44
2022/10/27 03:21:17;;;;;;;;;5.00;3.00;;;;;-147.17;100.00;-15917.19;5052495;28;51269;-44
2022/10/27 03:23:42;;;;;;;;;6.00;4.67;;;;;-147.17;100.00;-15917.19;5053162;28;51079;-44
2022/10/27 03:26:09;;;;;;;;;4.00;4.00;;;;;-147.17;100.00;-15917.19;5051538;28;51699;-44
2022/10/27 03:28:35;;;;;;;;;4.67;4.67;;;;;-147.17;100.00;-15917.19;5046873;28;51101;-43
2022/10/27 03:31:04;;;;;;;;;5.00;5.00;;;;;-147.17;100.00;-15917.19;5049238;28;50961;-43
2022/10/27 03:33:29;;;;;;;;;6.00;5.33;;;;;-147.17;100.00;-15917.19;5050707;28;52755;-44
2022/10/27 03:35:54;;;;;;;;;4.33;4.33;;;;;-147.17;100.00;-15917.19;5052303;28;51147;-43
2022/10/27 03:38:20;;;;;;;;;5.67;5.67;;;;;-147.17;100.00;-15917.19;5053160;28;51456;-43
2022/10/27 03:40:46;;;;;;;;;5.00;5.00;;;;;-147.17;100.00;-15917.19;5053316;28;51134;-43
2022/10/27 03:43:11;;;;;;;;;5.67;5.67;;;;;-147.17;100.00;-15917.19;5052089;28;51363;-44
2022/10/27 03:45:37;;;;;;;;;4.00;4.00;;;;;-147.17;100.00;-15917.19;5053416;28;51122;-44
2022/10/27 03:48:09;;;;;;;;;5.00;4.00;;;;;-147.17;100.00;-15917.19;5053135;28;51027;-43
2022/10/27 03:50:34;;;;;;;;;6.00;4.00;;;;;-147.17;100.00;-15917.19;5051964;28;51159;-43
2022/10/27 03:53:02;;;;;;;;;5.67;5.00;;;;;-147.17;100.00;-15917.19;5052006;28;51911;-45
2022/10/27 03:55:28;;;;;;;;;3.67;3.67;;;;;-147.17;100.00;-15917.19;5035645;28;51034;-45
2022/10/27 03:57:53;;;;;;;;;4.00;4.00;;;;;-147.17;100.00;-15917.19;5050036;28;51172;-44
2022/10/27 04:00:18;;;;;;;;;6.00;5.67;;;;;-147.17;100.00;-15917.19;5052271;28;51124;-44
2022/10/27 04:02:44;;;;;;;;;4.00;3.67;;;;;-147.17;100.00;-15917.19;5024363;28;52692;-43
2022/10/27 04:05:10;;;;;;;;;5.00;5.00;;;;;-147.17;100.00;-15917.19;5052905;28;50959;-44
2022/10/27 04:07:35;;;;;;;;;4.00;4.00;;;;;-147.17;100.00;-15917.19;5054768;28;51281;-45
2022/10/27 04:10:00;;;;;;;;;4.00;4.00;;;;;-147.17;100.00;-15917.19;5052954;28;51334;-44
2022/10/27 04:12:26;;;;;;;;;6.33;5.00;;;;;-147.17;100.00;-15917.19;5054605;28;51617;-43
2022/10/27 04:14:51;;;;;;;;;5.33;4.33;;;;;-147.17;100.00;-15917.19;5055295;28;51105;-44
2022/10/27 04:17:17;;;;;;;;;5.00;5.00;;;;;-147.17;100.00;-15917.19;5050796;28;51634;-44
2022/10/27 04:19:42;;;;;;;;;3.33;3.33;;;;;-147.17;100.00;-15917.19;5051055;28;51170;-44
2022/10/27 04:22:07;;;;;;;;;6.00;4.00;;;;;-147.17;100.00;-15917.19;5053088;28;51115;-44
2022/10/27 04:24:33;;;;;;;;;5.00;5.00;;;;;-147.17;100.00;-15917.19;5051148;28;51087;-43
2022/10/27 04:26:58;;;;;;;;;4.00;4.00;;;;;-147.17;100.00;-15917.19;5052318;28;51128;-44
2022/10/27 04:29:23;;;;;;;;;5.00;5.00;;;;;-147.17;100.00;-15917.19;5052643;28;51219;-44
2022/10/27 04:31:49;;;;;;;;;5.33;5.00;;;;;-147.17;100.00;-15917.19;5044333;28;51587;-44
2022/10/27 04:34:14;;;;;;;;;4.00;4.00;;;;;-147.17;100.00;-15917.19;5049912;28;51061;-43
2022/10/27 04:36:39;;;;;;;;;5.00;5.00;;;;;-147.17;100.00;-15917.19;5052886;28;52943;-45
2022/10/27 04:39:05;;;;;;;;;5.67;5.00;;;;;-147.17;100.00;-15917.19;5052195;28;51267;-44
2022/10/27 04:41:30;;;;;;;;;5.67;5.67;;;;;-147.17;100.00;-15917.19;5050692;28;52630;-44
2022/10/27 04:43:56;;;;;;;;;5.00;4.33;;;;;-147.17;100.00;-15917.19;5033109;28;51386;-44
2022/10/27 04:46:21;;;;;;;;;6.00;6.00;;;;;-147.17;100.00;-15917.19;5052928;28;51249;-44
2022/10/27 04:48:47;;;;;;;;;5.00;4.00;;;;;-147.17;100.00;-15917.19;5051787;28;51154;-43
2022/10/27 04:51:12;;;;;;;;;5.00;5.00;;;;;-147.17;100.00;-15917.19;5051778;28;51940;-43
2022/10/27 04:53:38;;;;;;;;;5.00;4.33;;;;;-147.17;100.00;-15917.19;5051572;28;51009;-43
2022/10/27 04:56:03;;;;;;;;;4.67;4.67;;;;;-147.17;100.00;-15917.19;5042353;28;51880;-45
2022/10/27 04:58:28;;;;;;;;;7.00;7.00;;;;;-147.17;100.00;-15917.19;5052721;28;51227;-43
2022/10/27 05:00:54;;;;;;;;;5.33;5.00;;;;;-147.17;100.00;-15917.19;5049083;28;56272;-45
2022/10/27 05:03:19;;;;;;;;;4.33;4.33;;;;;-147.17;100.00;-15917.19;5050808;28;51034;-44
2022/10/27 05:05:44;;;;;;;;;5.67;5.67;;;;;-147.17;100.00;-15917.19;5053156;28;51192;-45
2022/10/27 05:08:10;;;;;;;;;6.33;6.33;;;;;-147.17;100.00;-15917.19;5050581;28;51392;-45
2022/10/27 05:10:36;;;;;;;;;8.67;5.67;;;;;-147.17;100.00;-15917.19;5043490;28;52938;-45
2022/10/27 05:13:02;;;;;;;;;6.00;6.00;;;;;-147.17;100.00;-15917.19;5059878;28;51231;-46
2022/10/27 05:15:27;;;;;;;;;7.00;7.00;;;;;-147.17;100.00;-15917.19;5046695;28;51190;-45
2022/10/27 05:17:53;;;;;;;;;7.67;6.00;;;;;-147.17;100.00;-15917.19;5050019;28;51130;-43
2022/10/27 05:20:19;;;;;;;;;8.33;7.00;;;;;-147.17;100.00;-15917.19;5051508;28;51871;-44
2022/10/27 05:22:44;;;;;;;;;6.00;5.00;;;;;-147.17;100.00;-15917.19;5050517;28;51001;-44
2022/10/27 05:25:10;;;;;;;;;8.00;7.00;;;;;-147.17;100.00;-15917.19;5052366;28;51305;-44
2022/10/27 05:27:36;;;;;;;;;7.67;6.33;;;;;-147.17;100.00;-15917.19;5043608;28;52620;-44
2022/10/27 05:30:03;;;;;;;;;6.00;6.00;;;;;-147.17;100.00;-15917.19;5051221;28;52446;-44
2022/10/27 05:32:28;;;;;;;;;8.67;8.00;;;;;-147.17;100.00;-15917.19;5034175;28;51164;-45
2022/10/27 05:34:54;;;;;;;;;6.00;5.00;;;;;-147.17;100.00;-15917.19;5050640;28;50889;-43
2022/10/27 05:37:19;;;;;;;;;7.00;6.33;;;;;-147.17;100.00;-15917.19;5049039;28;51449;-43
2022/10/27 05:39:44;;;;;;;;;11.00;8.00;;;;;-147.17;100.00;-15917.19;5051105;28;51036;-45
2022/10/27 05:42:10;;;;;;;;;11.00;9.00;;;;;-147.17;100.00;-15917.19;5049381;28;54142;-45
2022/10/27 05:44:35;;;;;;;;;6.33;6.33;;;;;-147.17;100.00;-15917.19;5052637;28;51124;-46
2022/10/27 05:47:00;;;;;;;;;7.00;6.67;;;;;-147.17;100.00;-15917.19;5047312;28;51097;-44
2022/10/27 05:49:26;;;;;;;;;8.00;8.00;;;;;-147.17;100.00;-15917.19;5040718;28;51810;-44
2022/10/27 05:51:51;;;;;;;;;9.00;7.67;;;;;-147.17;100.00;-15917.19;5056429;28;51090;-45
2022/10/27 05:54:17;;;;;;;;;7.67;7.33;;;;;-147.17;100.00;-15917.19;5051089;28;51178;-46
2022/10/27 05:56:43;;;;;;;;;6.00;6.00;;;;;-147.17;100.00;-15917.19;5051319;28;51620;-45
2022/10/27 05:59:09;;;;;;;;;8.00;7.67;;;;;-147.17;100.00;-15917.19;5051381;28;51044;-45
2022/10/27 06:01:34;;;;;;;;;5.33;5.33;;;;;-147.17;100.00;-15917.19;5012945;28;51200;-45
2022/10/27 06:04:00;;;;;;;;;7.67;6.33;;;;;-147.17;100.00;-15917.19;5044187;28;54378;-46
2022/10/27 06:06:25;;;;;;;;;6.33;6.00;;;;;-147.17;100.00;-15917.19;5050280;28;51097;-46
2022/10/27 06:08:50;;;;;;;;;6.00;6.00;;;;;-147.17;100.00;-15917.19;5032928;28;55946;-45
2022/10/27 06:11:16;;;;;;;;;8.00;7.33;;;;;-147.17;100.00;-15917.19;5052001;28;51075;-45
2022/10/27 06:13:41;;;;;;;;;6.33;6.33;;;;;-147.17;100.00;-15917.19;5051761;28;51014;-48
2022/10/27 06:16:06;;;;;;;;;7.00;5.67;;;;;-147.17;100.00;-15917.19;5045434;28;50881;-45
2022/10/27 06:18:32;;;;;;;;;6.00;6.00;;;;;-147.17;100.00;-15917.19;5055523;28;51781;-47
2022/10/27 06:20:57;;;;;;;;;6.67;6.00;;;;;-147.17;100.00;-15917.19;5071999;28;50991;-46
2022/10/27 06:23:22;;;;;;;;;8.00;7.00;;;;;-147.17;100.00;-15917.19;5066560;28;50851;-46
2022/10/27 06:25:48;;;;;;;;;8.67;8.33;;;;;-147.17;100.00;-15917.19;5049976;28;51115;-46
2022/10/27 06:28:13;;;;;;;;;6.33;6.00;;;;;-147.17;100.00;-15917.19;5032990;28;51860;-47
2022/10/27 06:30:39;;;;;;;;;7.67;7.00;;;;;-147.17;100.00;-15917.19;5071496;28;51441;-47
2022/10/27 06:33:04;;;;;;;;;6.67;6.00;;;;;-147.17;100.00;-15917.19;5061623;28;51088;-45
2022/10/27 06:35:29;;;;;;;;;7.33;5.33;;;;;-147.17;100.00;-15917.19;5051348;28;51210;-45
2022/10/27 06:37:55;;;;;;;;;7.33;7.00;;;;;-147.17;100.00;-15917.19;5050372;28;59914;-46
2022/10/27 06:40:20;;;;;;;;;8.00;7.67;;;;;-147.17;100.00;-15917.19;5050605;28;51842;-46
2022/10/27 06:42:48;;;;;;;;;8.00;8.00;;;;;-147.17;100.00;-15917.19;5050372;28;51116;-47
2022/10/27 06:45:14;;;;;;;;;7.00;6.33;;;;;-147.17;100.00;-15917.19;5050252;28;51345;-45
2022/10/27 06:47:40;;;;;;;;;6.67;6.00;;;;;-147.17;100.00;-15917.19;5033765;28;50992;-45
2022/10/27 06:50:06;;;;;;;;;7.33;7.33;;;;;-147.17;100.00;-15917.19;5054641;28;51183;-47
2022/10/27 06:52:38;;;;;;;;;6.33;6.00;;;;;-147.17;100.00;-15917.19;5049098;28;51152;-46
2022/10/27 06:55:04;;;;;;;;;8.00;7.00;;;;;-147.17;100.00;-15917.19;5072777;28;51088;-47
2022/10/27 06:57:37;;;;;;;;;6.00;6.00;;;;;-147.17;100.00;-15917.19;5056694;28;53372;-47
2022/10/27 07:00:02;;;;;;;;;5.67;5.33;;;;;-147.17;100.00;-15917.19;5065902;28;51013;-47
2022/10/27 07:02:28;;;;;;;;;7.00;6.67;;;;;-147.17;100.00;-15917.19;5044072;28;51154;-47
2022/10/27 07:04:53;;;;;;;;;8.00;7.00;;;;;-147.17;100.00;-15917.19;5075367;28;51356;-46
2022/10/27 07:07:19;;;;;;;;;8.00;7.00;;;;;-147.17;100.00;-15917.19;5074692;28;51840;-46
2022/10/27 07:09:44;;;;;;;;;7.00;6.67;;;;;-147.17;100.00;-15917.19;5074589;28;50972;-48
2022/10/27 07:12:09;;;;;;;;;7.67;7.33;;;;;-147.17;100.00;-15917.19;5054213;28;51622;-47
2022/10/27 07:14:35;;;;;;;;;8.67;7.67;;;;;-147.17;100.00;-15917.19;5054702;28;51436;-46
2022/10/27 07:17:00;;;;;;;;;9.00;7.67;;;;;-147.17;100.00;-15917.19;5048665;28;53893;-46
2022/10/27 07:19:25;;;;;;;;;8.33;8.33;;;;;-147.17;100.00;-15917.19;5061984;28;55098;-47
2022/10/27 07:21:50;;;;;;;;;7.33;7.33;;;;;-147.17;100.00;-15917.19;5054666;28;51070;-46
2022/10/27 07:24:16;;;;;;;;;10.67;10.33;;;;;-147.17;100.00;-15917.19;5053755;28;51301;-46
2022/10/27 07:26:41;;;;;;;;;11.67;10.00;;;;;-147.17;100.00;-15917.19;5053706;28;63430;-47
2022/10/27 07:29:06;;;;;;;;;9.67;9.33;;;;;-147.17;100.00;-15917.19;5057389;28;50978;-47
2022/10/27 07:31:32;;;;;;;;;11.67;10.67;;;;;-147.17;100.00;-15917.19;5056423;28;51084;-45
2022/10/27 07:33:57;;;;;;;;;12.33;11.00;;;;;-147.17;100.00;-15917.19;5074481;28;50981;-45
2022/10/27 07:36:22;;;;;;;;;7.00;7.00;;;;;-147.17;100.00;-15917.19;5058588;28;55171;-45
2022/10/27 07:38:48;;;;;;;;;8.67;7.00;;;;;-147.17;100.00;-15917.19;5035506;28;51056;-49
2022/10/27 07:41:13;;;;;;;;;9.67;8.33;;;;;-147.17;100.00;-15917.19;5053968;28;50902;-46
2022/10/27 07:43:38;;;;;;;;;7.00;6.33;;;;;-147.17;100.00;-15917.19;5054405;28;50895;-47
2022/10/27 07:46:04;;;;;;;;;7.00;6.67;;;;;-147.17;100.00;-15917.19;5053746;28;51573;-47
2022/10/27 07:48:29;;;;;;;;;10.00;10.00;;;;;-147.17;100.00;-15917.19;5033490;28;51147;-45
2022/10/27 07:50:54;;;;;;;;;6.67;6.67;;;;;-147.17;100.00;-15917.19;5053859;28;51092;-45
2022/10/27 07:53:20;;;;;;;;;6.67;6.00;;;;;-147.17;100.00;-15917.19;5059975;28;51239;-47
2022/10/27 07:55:45;;;;;;;;;8.00;7.67;;;;;-147.17;100.00;-15917.19;5053697;28;52221;-46
2022/10/27 07:58:15;;;;;;;;;5.67;5.67;;;;;-147.17;100.00;-15917.19;5053493;28;51080;-46
2022/10/27 08:00:43;;;;;;;;;8.00;7.67;;;;;-147.17;100.00;-15917.19;5030188;28;50969;-47
2022/10/27 08:03:13;;;;;;;;;8.67;8.67;;;;;-147.17;100.00;-15917.19;5071681;28;51055;-46
2022/10/27 08:05:38;;;;;;;;;8.00;8.00;;;;;-147.17;100.00;-15917.19;5073735;28;53076;-46
2022/10/27 08:08:05;;;;;;;;;9.00;9.00;;;;;-147.17;100.00;-15917.19;5054973;28;50991;-46
2022/10/27 08:10:33;;;;;;;;;8.33;7.00;;;;;-147.17;100.00;-15917.19;5055723;28;50966;-48
2022/10/27 08:12:59;;;;;;;;;9.00;9.00;;;;;-147.17;100.00;-15917.19;5035355;28;51430;-47
2022/10/27 08:15:25;;;;;;;;;10.33;9.33;;;;;-147.17;100.00;-15917.19;5053042;28;50921;-47
2022/10/27 08:17:52;;;;;;;;;10.00;9.00;;;;;-147.17;100.00;-15917.19;5053499;28;51063;-47
2022/10/27 08:20:18;;;;;;;;;9.00;9.00;;;;;-147.17;100.00;-15917.19;5053629;28;51101;-47
2022/10/27 08:22:43;;;;;;;;;7.00;7.00;;;;;-147.17;100.00;-15917.19;5053563;28;50981;-46
2022/10/27 08:25:08;;;;;;;;;8.67;8.67;;;;;-147.17;100.00;-15917.19;5052599;28;53011;-46
2022/10/27 08:27:34;;;;;;;;;6.67;6.67;;;;;-147.17;100.00;-15917.19;5053194;28;51078;-46
2022/10/27 08:29:59;;;;;;;;;8.67;8.67;;;;;-147.17;100.00;-15917.19;5053272;28;51001;-46
2022/10/27 08:32:24;;;;;;;;;9.67;9.00;;;;;-147.17;100.00;-15917.19;5053498;28;51408;-47
2022/10/27 08:34:50;;;;;;;;;9.00;8.33;;;;;-147.17;100.00;-15917.19;5053060;28;51782;-45
2022/10/27 08:37:15;;;;;;;;;8.67;8.00;;;;;-147.17;100.00;-15917.19;5034993;28;52014;-45
2022/10/27 08:39:40;;;;;;;;;10.00;10.00;;;;;-147.17;100.00;-15917.19;5052568;28;53802;-46
2022/10/27 08:42:40;;;;;;;;;7.33;7.33;;;;;-147.17;100.00;-15917.19;5053322;28;51084;-46
2022/10/27 08:45:16;;;;;;;;;9.67;8.00;;;;;-147.17;100.00;-15917.19;5041667;28;51288;-46
2022/10/27 08:47:42;;;;;;;;;11.00;10.00;;;;;-147.17;100.00;-15917.19;5052714;28;50998;-46
2022/10/27 08:50:15;;;;;;;;;10.33;10.33;;;;;-147.17;100.00;-15917.19;5052550;28;51118;-45
2022/10/27 08:52:48;;;;;;;;;8.33;8.33;;;;;-147.17;100.00;-15917.19;5053247;28;51098;-47
2022/10/27 08:55:13;;;;;;;;;12.00;11.00;;;;;-147.17;100.00;-15917.19;5039248;28;50889;-46
2022/10/27 08:58:00;;;;;;;;;10.67;8.33;;;;;-147.17;100.00;-15917.19;5052647;28;50924;-45
2022/10/27 09:00:34;;;;;;;;;10.33;9.00;;;;;-147.17;100.00;-15917.19;5052831;28;51120;-45
2022/10/27 09:03:31;;;;;;;;;12.33;12.00;;;;;-147.17;100.00;-15917.19;5035897;28;51594;-45
2022/10/27 09:06:09;;;;;;;;;11.00;10.00;;;;;-147.17;100.00;-15917.19;5052310;28;51079;-46
2022/10/27 09:08:56;;;;;;;;;11.33;10.67;;;;;-147.17;100.00;-15917.19;5052007;28;51230;-47
2022/10/27 09:11:46;;;;;;;;;11.00;9.33;;;;;-147.17;100.00;-15917.19;5052119;28;50961;-47
2022/10/27 09:14:37;;;;;;;;;10.67;9.67;;;;;-147.17;100.00;-15917.19;5052656;28;51291;-47
2022/10/27 09:17:11;;;;;;;;;12.00;11.00;;;;;-147.17;100.00;-15917.19;5051909;28;52250;-47
2022/10/27 09:19:47;;;;;;;;;11.33;10.33;;;;;-147.17;100.00;-15917.19;5052741;28;50971;-47
2022/10/27 09:22:17;;;;;;;;;11.00;10.00;;;;;-147.17;100.00;-15917.19;5052386;28;51025;-46
2022/10/27 09:24:53;;;;;;;;;13.00;12.67;;;;;-147.17;100.00;-15917.19;5050707;28;51592;-45
2022/10/27 09:27:20;;;;;;;;;13.00;12.00;;;;;-147.17;100.00;-15917.19;5069928;28;51912;-47
2022/10/27 09:29:49;;;;;;;;;10.67;10.00;;;;;-147.17;100.00;-15917.19;5066768;28;50902;-47
2022/10/27 09:32:22;;;;;;;;;27.50;26.25;;;;;-147.17;100.00;-15917.19;5058577;28;51170;-47
2022/10/27 09:35:02;;;;;;;;;11.00;11.00;;;;;-147.17;100.00;-15917.19;5054822;28;51152;-45
2022/10/27 09:37:30;;;;;;;;;14.00;13.00;;;;;-147.17;100.00;-15917.19;5052056;28;51844;-45
2022/10/27 09:39:57;;;;;;;;;12.00;11.67;;;;;-147.17;100.00;-15917.19;5033523;28;51212;-45
2022/10/27 09:42:23;;;;;;;;;12.67;11.67;;;;;-147.17;100.00;-15917.19;5051430;28;51083;-47
2022/10/27 09:44:57;;;;;;;;;16.67;14.67;;;;;-147.17;100.00;-15917.19;5051787;28;51411;-46
2022/10/27 09:47:27;;;;;;;;;11.33;10.67;;;;;-147.17;100.00;-15917.19;5050637;28;52282;-45
2022/10/27 09:49:55;;;;;;;;;10.00;9.33;;;;;-147.17;100.00;-15917.19;5034722;28;51571;-46
2022/10/27 09:52:30;;;;;;;;;13.67;12.67;;;;;-147.17;100.00;-15917.19;5048780;28;51115;-46
2022/10/27 09:54:56;;;;;;;;;12.33;10.33;;;;;-147.17;100.00;-15917.19;5062342;28;51202;-47
2022/10/27 09:57:27;;;;;;;;;14.67;14.00;;;;;-147.17;100.00;-15917.19;5060232;28;50997;-45
2022/10/27 10:00:23;;;;;;;;;12.67;11.67;;;;;-147.17;100.00;-15917.19;5066057;28;51084;-46
2022/10/27 10:03:00;;;;;;;;;12.00;11.67;;;;;-147.17;100.00;-15917.19;5046387;28;51187;-47
2022/10/27 10:05:30;;;;;;;;;13.33;12.00;;;;;-147.17;100.00;-15917.19;5050598;28;51265;-46
2022/10/27 10:08:22;;;;;;;;;10.67;10.67;;;;;-147.17;100.00;-15917.19;5050703;28;52741;-44
2022/10/27 10:11:04;;;;;;;;;10.67;10.33;;;;;-147.17;100.00;-15917.19;5032459;28;51067;-46
2022/10/27 10:13:32;;;;;;;;;18.67;16.33;;;;;-147.17;100.00;-15917.19;5045468;28;51420;-44
2022/10/27 10:16:09;;;;;;;;;13.67;12.67;;;;;-147.17;100.00;-15917.19;5050002;28;51484;-46
2022/10/27 10:18:37;;;;;;;;;16.00;13.67;;;;;-147.17;100.00;-15917.19;5049784;28;51813;-44
2022/10/27 10:21:10;;;;;;;;;12.00;11.33;;;;;-147.17;100.00;-15917.19;5048240;28;51188;-44
2022/10/27 10:23:50;;;;;;;;;16.33;15.33;;;;;-147.17;100.00;-15917.19;5035911;28;51075;-46
2022/10/27 10:26:25;;;;;;;;;13.67;13.33;;;;;-147.17;100.00;-15917.19;5047914;28;50930;-45
2022/10/27 10:28:55;;;;;;;;;11.67;11.00;;;;;-147.17;100.00;-15917.19;5042452;28;51859;-45
2022/10/27 10:31:26;;;;;;;;;13.00;12.67;;;;;-147.17;100.00;-15917.19;5053274;28;51152;-46
2022/10/27 10:33:56;;;;;;;;;14.33;14.00;;;;;-147.17;100.00;-15917.19;5036340;28;51009;-46
2022/10/27 10:36:34;;;;;;;;;11.00;10.33;;;;;-147.17;100.00;-15917.19;5052432;28;51125;-46
2022/10/27 10:39:00;;;;;;;;;12.33;11.33;;;;;-147.17;100.00;-15917.19;5052976;28;51959;-45
2022/10/27 10:41:27;;;;;;;;;10.67;10.00;;;;;-147.17;100.00;-15917.19;5054669;28;51068;-46
2022/10/27 10:44:19;;;;;;;;;12.00;11.67;;;;;-147.17;100.00;-15917.19;5073520;28;51178;-46
2022/10/27 10:46:56;;;;;;;;;12.67;12.67;;;;;-147.17;100.00;-15917.19;5069187;28;51056;-46
2022/10/27 10:49:24;;;;;;;;;13.00;13.00;;;;;-147.17;100.00;-15917.19;5064095;28;52687;-45
2022/10/27 10:51:52;;;;;;;;;19.33;18.00;;;;;-147.17;100.00;-15917.19;5053787;28;50950;-45
2022/10/27 10:54:34;;;;;;;;;12.33;12.33;;;;;-147.17;100.00;-15917.19;5056716;28;51234;-48
2022/10/27 10:57:01;;;;;;;;;11.00;11.00;;;;;-147.17;100.00;-15917.19;5074436;28;50922;-47
2022/10/27 10:59:30;;;;;;;;;12.67;12.33;;;;;-147.17;100.00;-15917.19;5074125;27;51124;-46
2022/10/27 11:02:21;;;;;;;;;12.00;11.33;;;;;-147.17;100.00;-15917.19;5058635;28;51151;-48
2022/10/27 11:04:47;;;;;;;;;16.33;16.33;;;;;-147.17;100.00;-15917.19;5050125;28;51041;-46
2022/10/27 11:07:23;;;;;;;;;14.00;14.00;;;;;-147.17;100.00;-15917.19;5053538;28;50918;-45